Time;durP1;ratioP1;P1;durP2;ratioP2;P2;SDS_P1;SDS_P2;PMS_P1;PMS_P2;Temp;Humidity;BMP_temperature;BMP_pressure;BME280_temperature;BME280_humidity;BME280_pressure;Samples;Min_cycle;Max_cycle;Signal;HPM_P1;HPM_P2
2021/12/29 00:00:05;;;;;;;31.80;19.48;;;128.10;2252.80;;;;;;5036312;28;20029;-78
2021/12/29 00:02:30;;;;;;;28.38;17.35;;;128.00;2252.80;;;;;;5030588;28;20024;-78
2021/12/29 00:04:56;;;;;;;25.08;15.15;;;128.10;2252.80;;;;;;5027505;28;20037;-79
2021/12/29 00:07:23;;;;;;;26.83;18.52;;;128.10;2252.80;;;;;;5039549;28;20064;-79
2021/12/29 00:09:50;;;;;;;25.75;16.52;;;128.10;2252.80;;;;;;5028841;28;20029;-79
2021/12/29 00:12:23;;;;;;;26.98;16.02;;;128.10;2252.80;;;;;;5022108;28;20018;-78
2021/12/29 00:14:50;;;;;;;22.30;15.05;;;128.10;2252.80;;;;;;5034422;28;20025;-78
2021/12/29 00:17:15;;;;;;;23.48;14.73;;;128.10;2252.80;;;;;;5022288;28;20038;-78
2021/12/29 00:19:41;;;;;;;22.42;13.07;;;128.10;2252.80;;;;;;5030221;28;20037;-78
2021/12/29 00:22:07;;;;;;;20.02;13.25;;;128.10;2252.80;;;;;;5032604;28;20081;-78
2021/12/29 00:24:33;;;;;;;22.08;15.15;;;128.10;2252.80;;;;;;5040561;28;20021;-78
2021/12/29 00:26:59;;;;;;;19.50;13.63;;;128.10;2252.80;;;;;;5024925;28;20022;-78
2021/12/29 00:29:24;;;;;;;30.38;17.23;;;128.10;2252.80;;;;;;5040060;28;20751;-78
2021/12/29 00:31:50;;;;;;;24.17;14.93;;;128.10;2252.80;;;;;;5026092;28;20562;-79
2021/12/29 00:34:16;;;;;;;19.02;12.48;;;128.10;2252.80;;;;;;5038025;28;20036;-77
2021/12/29 00:36:41;;;;;;;22.10;14.77;;;128.10;2252.80;;;;;;5036255;28;20043;-78
2021/12/29 00:39:07;;;;;;;23.10;13.20;;;128.10;2252.80;;;;;;5034164;28;20048;-78
2021/12/29 00:41:33;;;;;;;21.63;13.63;;;128.50;2252.80;;;;;;5032213;28;20109;-79
2021/12/29 00:43:59;;;;;;;21.30;13.77;;;128.20;2252.80;;;;;;5039113;28;20042;-78
2021/12/29 00:46:25;;;;;;;23.48;13.93;;;128.20;2252.80;;;;;;5040564;28;20033;-78
2021/12/29 00:48:51;;;;;;;21.58;13.50;;;128.10;2252.80;;;;;;5029973;28;20029;-78
2021/12/29 00:51:17;;;;;;;19.98;12.50;;;128.10;2252.80;;;;;;5027950;28;20416;-79
2021/12/29 00:53:44;;;;;;;20.13;11.93;;;128.10;2252.80;;;;;;5029374;28;20037;-78
2021/12/29 00:56:10;;;;;;;19.45;11.98;;;128.10;2252.80;;;;;;5018931;28;20074;-78
2021/12/29 00:58:36;;;;;;;18.10;11.88;;;128.10;2252.80;;;;;;5029182;28;20061;-78
2021/12/29 01:01:02;;;;;;;16.77;10.90;;;128.10;2252.80;;;;;;5034888;28;20473;-79
2021/12/29 01:03:28;;;;;;;20.20;12.88;;;128.10;2252.80;;;;;;5042199;28;20034;-78
2021/12/29 01:05:54;;;;;;;20.50;12.85;;;128.10;2252.80;;;;;;5043958;28;20051;-79
2021/12/29 01:08:20;;;;;;;20.70;11.75;;;128.10;2252.80;;;;;;5035144;28;20029;-78
2021/12/29 01:10:46;;;;;;;21.42;11.88;;;128.10;2252.80;;;;;;5037595;28;20025;-78
2021/12/29 01:13:14;;;;;;;17.65;12.38;;;128.10;2252.80;;;;;;5035772;28;20572;-79
2021/12/29 01:15:58;;;;;;;19.42;11.85;;;128.10;2252.80;;;;;;5029145;28;20076;-78
2021/12/29 01:18:26;;;;;;;19.15;12.13;;;128.00;2252.80;;;;;;5035787;28;20512;-79
2021/12/29 01:20:53;;;;;;;18.92;11.63;;;128.10;2252.80;;;;;;5037461;28;20681;-79
2021/12/29 01:23:19;;;;;;;19.38;12.35;;;128.10;2252.80;;;;;;5028877;28;20112;-79
2021/12/29 01:25:45;;;;;;;20.10;12.43;;;128.00;2252.80;;;;;;5027170;28;20489;-79
2021/12/29 01:28:10;;;;;;;18.30;10.88;;;128.10;2252.80;;;;;;5029533;28;20029;-79
2021/12/29 01:30:36;;;;;;;20.92;11.25;;;128.10;2252.80;;;;;;5036515;28;20116;-79
2021/12/29 01:33:06;;;;;;;16.63;10.57;;;128.10;2252.80;;;;;;5031201;28;20033;-79
2021/12/29 01:35:39;;;;;;;20.00;12.50;;;128.10;2252.80;;;;;;5033161;28;20408;-79
2021/12/29 01:38:06;;;;;;;16.40;10.60;;;128.10;2252.80;;;;;;5029510;28;20029;-79
2021/12/29 01:40:32;;;;;;;17.23;11.00;;;128.10;2252.80;;;;;;5032365;28;20072;-78
2021/12/29 01:42:59;;;;;;;17.85;10.80;;;128.10;2252.80;;;;;;5032286;28;20041;-78
2021/12/29 01:45:25;;;;;;;21.83;12.95;;;128.10;2252.80;;;;;;5034296;28;20029;-78
2021/12/29 01:47:52;;;;;;;19.60;12.95;;;128.20;2252.80;;;;;;5037130;28;20021;-78
2021/12/29 01:50:19;;;;;;;17.35;11.75;;;128.20;2252.80;;;;;;5026207;28;20374;-78
2021/12/29 01:52:53;;;;;;;18.70;11.70;;;128.10;2252.80;;;;;;5037530;28;20384;-77
2021/12/29 01:55:19;;;;;;;18.25;11.82;;;128.10;2252.80;;;;;;5027350;28;20047;-78
2021/12/29 01:57:45;;;;;;;18.48;10.40;;;128.10;2252.80;;;;;;5027243;28;20029;-78
2021/12/29 02:00:15;;;;;;;20.30;11.35;;;128.10;2252.80;;;;;;5033484;28;20038;-78
2021/12/29 02:02:42;;;;;;;17.55;11.77;;;128.10;2252.80;;;;;;5046975;28;20036;-78
2021/12/29 02:05:09;;;;;;;18.65;10.57;;;128.10;2252.80;;;;;;5027225;28;20031;-79
2021/12/29 02:07:35;;;;;;;18.70;10.70;;;128.10;2252.80;;;;;;5028044;28;20111;-79
2021/12/29 02:10:00;;;;;;;18.90;11.80;;;128.10;2252.80;;;;;;5038505;28;20656;-79
2021/12/29 02:12:26;;;;;;;21.65;10.93;;;128.10;2252.80;;;;;;5037984;28;20036;-79
2021/12/29 02:14:52;;;;;;;17.90;11.07;;;128.10;2252.80;;;;;;5037686;28;20094;-79
2021/12/29 02:17:18;;;;;;;16.17;10.23;;;128.10;2252.80;;;;;;5020961;28;20079;-80
2021/12/29 02:19:46;;;;;;;18.38;10.45;;;128.10;2252.80;;;;;;5036360;28;20492;-80
2021/12/29 02:22:35;;;;;;;18.42;10.73;;;128.10;2252.80;;;;;;5031725;28;20106;-80
2021/12/29 02:25:46;;;;;;;17.38;11.35;;;128.10;2252.80;;;;;;5025512;28;20030;-80
2021/12/29 02:27:55;;;;;;;20.52;12.90;;;128.10;2252.80;;;;;;5029387;28;20038;-79
2021/12/29 02:30:24;;;;;;;15.05;10.07;;;128.10;2252.80;;;;;;5035628;28;20030;-80
2021/12/29 02:32:54;;;;;;;18.08;10.95;;;128.10;2252.80;;;;;;5038921;28;20030;-79
2021/12/29 02:35:21;;;;;;;16.50;10.02;;;128.00;2252.80;;;;;;5028034;28;20018;-79
2021/12/29 02:37:47;;;;;;;17.65;10.80;;;128.10;2252.80;;;;;;5037759;28;20033;-80
2021/12/29 02:40:13;;;;;;;18.73;11.23;;;128.10;2252.80;;;;;;5035704;28;20037;-81
2021/12/29 02:42:41;;;;;;;16.88;10.27;;;128.00;2252.80;;;;;;5024277;28;20026;-81
2021/12/29 02:45:10;;;;;;;16.75;10.60;;;128.00;2252.80;;;;;;5021833;28;20025;-80
2021/12/29 02:47:36;;;;;;;18.80;10.90;;;128.00;2252.80;;;;;;5036363;28;20059;-80
2021/12/29 02:50:02;;;;;;;20.23;11.70;;;128.00;2252.80;;;;;;5038224;28;20022;-80
2021/12/29 02:52:28;;;;;;;16.23;10.77;;;128.10;2252.80;;;;;;5036101;28;20052;-80
2021/12/29 02:54:53;;;;;;;22.95;12.52;;;128.10;2252.80;;;;;;5029739;28;20064;-79
2021/12/29 02:57:20;;;;;;;21.38;12.30;;;128.10;2252.80;;;;;;5030426;28;20031;-80
2021/12/29 02:59:46;;;;;;;19.38;12.35;;;128.30;2252.80;;;;;;5031990;28;20033;-80
2021/12/29 03:02:12;;;;;;;20.10;12.43;;;128.10;2252.80;;;;;;5024100;28;20063;-79
2021/12/29 03:04:38;;;;;;;21.85;13.75;;;128.20;2252.80;;;;;;5039053;28;20038;-78
2021/12/29 03:07:04;;;;;;;21.60;13.27;;;128.10;2252.80;;;;;;5036612;28;20051;-78
2021/12/29 03:09:30;;;;;;;21.13;14.20;;;128.10;2252.80;;;;;;5037711;28;20069;-78
2021/12/29 03:11:56;;;;;;;22.10;13.70;;;128.20;2252.80;;;;;;5041951;28;20040;-77
2021/12/29 03:14:24;;;;;;;19.20;13.02;;;128.20;2252.80;;;;;;5040676;28;20049;-77
2021/12/29 03:16:50;;;;;;;19.35;14.18;;;128.10;2252.80;;;;;;5043879;28;20051;-77
2021/12/29 03:19:16;;;;;;;27.05;14.13;;;128.10;2252.80;;;;;;5040828;28;20067;-77
2021/12/29 03:21:42;;;;;;;22.33;14.57;;;128.10;2252.80;;;;;;5046060;28;20021;-77
2021/12/29 03:24:08;;;;;;;22.67;14.45;;;128.20;2252.80;;;;;;5041610;28;20025;-77
2021/12/29 03:26:34;;;;;;;23.88;14.18;;;128.20;2252.80;;;;;;5037768;28;20119;-77
2021/12/29 03:29:00;;;;;;;23.33;13.45;;;128.10;2252.80;;;;;;5043080;28;20028;-78
2021/12/29 03:31:30;;;;;;;21.42;13.90;;;128.20;2252.80;;;;;;5042714;28;20579;-77
2021/12/29 03:33:56;;;;;;;25.35;15.60;;;128.20;2252.80;;;;;;5039752;28;20554;-77
2021/12/29 03:36:22;;;;;;;24.90;14.75;;;128.20;2252.80;;;;;;5042764;28;20037;-77
2021/12/29 03:38:51;;;;;;;24.38;15.90;;;128.20;2252.80;;;;;;5039169;28;20120;-77
2021/12/29 03:41:18;;;;;;;23.73;13.32;;;128.20;2252.80;;;;;;5039720;28;20404;-77
2021/12/29 03:43:45;;;;;;;23.50;14.90;;;128.10;2252.80;;;;;;5036112;28;20021;-78
2021/12/29 03:46:12;;;;;;;25.58;14.60;;;128.10;2252.80;;;;;;5043306;28;20064;-77
2021/12/29 03:48:39;;;;;;;21.67;13.30;;;128.10;1945.60;;;;;;5036412;28;20109;-77
2021/12/29 03:51:06;;;;;;;22.05;14.15;;;128.20;1996.80;;;;;;5037867;28;20108;-77
2021/12/29 03:53:33;;;;;;;21.77;14.82;;;128.10;1945.60;;;;;;5040210;28;20140;-77
2021/12/29 03:55:59;;;;;;;23.48;13.70;;;128.20;2048.00;;;;;;5036680;28;20033;-77
2021/12/29 03:58:27;;;;;;;23.98;14.25;;;128.20;1971.20;;;;;;5037637;28;20028;-77
2021/12/29 04:00:57;;;;;;;21.55;14.18;;;128.20;2048.00;;;;;;5037590;28;20032;-78
2021/12/29 04:03:23;;;;;;;20.70;14.70;;;128.20;2048.00;;;;;;5038922;28;20017;-78
2021/12/29 04:05:49;;;;;;;24.75;14.63;;;128.20;2022.40;;;;;;5042971;28;20056;-77
2021/12/29 04:08:15;;;;;;;24.52;15.48;;;128.20;2150.40;;;;;;5043561;28;20133;-77
2021/12/29 04:10:41;;;;;;;21.98;13.98;;;128.20;2201.60;;;;;;5046722;28;20045;-77
2021/12/29 04:13:07;;;;;;;21.65;14.02;;;128.20;2073.60;;;;;;5044338;28;20049;-77
2021/12/29 04:15:34;;;;;;;20.45;12.55;;;128.20;1868.80;;;;;;5044822;28;20033;-77
2021/12/29 04:18:03;;;;;;;20.67;13.50;;;128.20;2022.40;;;;;;5042388;28;20056;-77
2021/12/29 04:23:18;;;;;;;22.73;12.63;;;128.10;2252.80;;;;;;5044810;28;20040;-77
2021/12/29 04:25:49;;;;;;;20.25;13.75;;;128.20;2252.80;;;;;;5046021;28;20029;-77
2021/12/29 04:28:20;;;;;;;20.77;13.57;;;128.20;2150.40;;;;;;5045143;28;20025;-76
2021/12/29 04:30:47;;;;;;;22.33;13.93;;;128.20;2252.80;;;;;;5035865;28;20171;-76
2021/12/29 04:33:14;;;;;;;19.35;12.60;;;128.10;2150.40;;;;;;5046463;28;20013;-76
2021/12/29 04:35:40;;;;;;;18.75;11.95;;;128.20;2252.80;;;;;;5048270;28;20021;-76
2021/12/29 04:38:07;;;;;;;18.25;12.45;;;128.20;2201.60;;;;;;5044666;28;20060;-76
2021/12/29 04:40:33;;;;;;;17.02;12.23;;;128.10;2252.80;;;;;;5042450;28;20066;-76
2021/12/29 04:42:59;;;;;;;20.77;12.85;;;128.10;2252.80;;;;;;5044490;28;21834;-76
2021/12/29 04:45:25;;;;;;;25.17;14.73;;;128.10;2252.80;;;;;;5042723;28;20100;-76
2021/12/29 04:47:51;;;;;;;34.22;22.35;;;128.20;2252.80;;;;;;5031561;28;20115;-76
2021/12/29 04:50:35;;;;;;;62.15;37.78;;;128.10;2252.80;;;;;;5022365;28;20476;-75
2021/12/29 04:53:02;;;;;;;49.55;34.53;;;128.20;2252.80;;;;;;5025474;28;20022;-75
2021/12/29 04:55:29;;;;;;;52.17;30.50;;;128.20;2252.80;;;;;;5022817;28;20030;-75
2021/12/29 04:57:57;;;;;;;27.98;19.50;;;128.40;2252.80;;;;;;5032394;28;20060;-75
2021/12/29 05:00:26;;;;;;;25.73;16.88;;;128.10;2252.80;;;;;;5044280;28;20075;-75
2021/12/29 05:02:53;;;;;;;34.88;22.55;;;128.10;2252.80;;;;;;5043846;28;20033;-75
2021/12/29 05:10:31;;;;;;;47.85;27.35;;;128.10;2252.80;;;;;;5044307;28;20032;-76
2021/12/29 05:12:56;;;;;;;57.35;33.72;;;128.10;2252.80;;;;;;5042707;28;20030;-77
2021/12/29 05:15:22;;;;;;;61.33;39.22;;;128.10;2252.80;;;;;;5040772;28;20515;-77
2021/12/29 05:17:48;;;;;;;59.70;37.95;;;128.10;2252.80;;;;;;5043510;28;20808;-77
2021/12/29 05:20:14;;;;;;;51.42;32.55;;;128.10;2252.80;;;;;;5043960;28;20057;-76
2021/12/29 05:22:40;;;;;;;45.72;29.70;;;128.10;2252.80;;;;;;5041406;28;20514;-76
2021/12/29 05:25:06;;;;;;;49.80;27.08;;;128.10;2252.80;;;;;;5041535;28;20033;-76
2021/12/29 05:27:31;;;;;;;27.88;17.50;;;128.20;2252.80;;;;;;5043909;28;20125;-76
2021/12/29 05:30:02;;;;;;;25.05;16.30;;;128.20;2252.80;;;;;;5040504;28;20057;-76
2021/12/29 05:32:30;;;;;;;24.60;14.88;;;128.20;2252.80;;;;;;5041686;28;20036;-76
2021/12/29 05:34:56;;;;;;;21.63;13.48;;;128.20;2252.80;;;;;;5032625;28;20038;-77
2021/12/29 05:37:21;;;;;;;20.88;13.18;;;128.20;2252.80;;;;;;5033754;28;20032;-76
2021/12/29 05:39:47;;;;;;;23.08;13.40;;;128.20;2252.80;;;;;;5033099;28;20033;-77
2021/12/29 05:42:13;;;;;;;23.85;14.95;;;128.20;2252.80;;;;;;5032452;28;20036;-76
2021/12/29 05:44:38;;;;;;;27.25;16.52;;;128.20;2252.80;;;;;;5033975;28;20021;-76
2021/12/29 05:47:04;;;;;;;33.92;21.42;;;128.10;2252.80;;;;;;5033376;28;20066;-76
2021/12/29 05:49:30;;;;;;;43.50;28.02;;;128.00;2252.80;;;;;;5032616;28;20507;-76
2021/12/29 05:51:56;;;;;;;29.50;18.92;;;128.00;2252.80;;;;;;5031871;28;20034;-76
2021/12/29 05:54:21;;;;;;;28.58;15.93;;;128.00;2252.80;;;;;;5032587;28;20380;-76
2021/12/29 05:56:47;;;;;;;25.70;16.58;;;128.00;2252.80;;;;;;5031931;28;20056;-76
2021/12/29 05:59:13;;;;;;;24.02;15.35;;;128.00;2252.80;;;;;;5032249;28;20465;-76
2021/12/29 06:01:40;;;;;;;25.17;16.42;;;128.00;2252.80;;;;;;5033573;28;20033;-76
2021/12/29 06:04:05;;;;;;;26.70;16.73;;;128.00;2252.80;;;;;;5033226;28;20043;-77
2021/12/29 06:06:31;;;;;;;26.75;15.82;;;128.00;2252.80;;;;;;5032024;28;20420;-76
2021/12/29 06:08:57;;;;;;;21.90;13.77;;;128.00;2252.80;;;;;;5033418;28;20022;-77
2021/12/29 06:11:23;;;;;;;20.50;13.70;;;128.00;2252.80;;;;;;5032291;28;20036;-76
2021/12/29 06:13:48;;;;;;;23.08;15.70;;;128.00;2252.80;;;;;;5033216;28;20021;-76
2021/12/29 06:16:14;;;;;;;23.40;14.38;;;128.00;2252.80;;;;;;5033478;28;20099;-76
2021/12/29 06:18:40;;;;;;;22.67;14.50;;;128.10;2252.80;;;;;;5031913;28;20079;-76
2021/12/29 06:21:05;;;;;;;21.25;13.32;;;128.10;2252.80;;;;;;5039079;28;20038;-76
2021/12/29 06:23:31;;;;;;;26.55;15.75;;;128.10;2252.80;;;;;;5052887;28;20032;-76
2021/12/29 06:25:57;;;;;;;27.45;16.85;;;128.20;2252.80;;;;;;5051873;28;20028;-76
2021/12/29 06:28:23;;;;;;;23.88;14.80;;;128.10;2252.80;;;;;;5052206;28;20396;-77
2021/12/29 06:30:48;;;;;;;27.58;16.08;;;128.10;2252.80;;;;;;5052534;28;20450;-76
2021/12/29 06:33:14;;;;;;;25.50;16.80;;;128.10;2252.80;;;;;;5053064;28;20035;-76
2021/12/29 06:35:40;;;;;;;28.45;18.67;;;128.10;2252.80;;;;;;5051095;28;20434;-76
2021/12/29 06:38:06;;;;;;;26.77;17.20;;;128.10;2252.80;;;;;;5052010;28;20044;-76
2021/12/29 06:40:32;;;;;;;25.55;16.20;;;128.20;2252.80;;;;;;5051955;28;20017;-76
2021/12/29 06:42:57;;;;;;;32.13;17.30;;;128.30;2252.80;;;;;;5052807;28;20021;-76
2021/12/29 06:45:23;;;;;;;29.55;20.35;;;128.20;2252.80;;;;;;5050728;28;20036;-76
2021/12/29 06:47:49;;;;;;;34.58;19.30;;;128.20;2252.80;;;;;;5052624;28;20472;-76
2021/12/29 06:50:15;;;;;;;28.92;20.25;;;128.30;2252.80;;;;;;5052173;28;20100;-77
2021/12/29 06:52:40;;;;;;;33.15;20.08;;;128.20;2252.80;;;;;;5052434;28;20143;-76
2021/12/29 06:55:07;;;;;;;31.42;20.33;;;128.30;2252.80;;;;;;5050596;28;20024;-76
2021/12/29 06:57:33;;;;;;;36.35;21.50;;;128.30;2252.80;;;;;;5031799;28;20037;-77
2021/12/29 06:59:59;;;;;;;38.30;23.38;;;128.40;2252.80;;;;;;5032539;28;20029;-77
2021/12/29 07:02:24;;;;;;;37.90;22.40;;;128.50;2252.80;;;;;;5051198;28;20438;-77
2021/12/29 07:04:50;;;;;;;31.48;20.55;;;128.40;2252.80;;;;;;5052240;28;20029;-76
2021/12/29 07:07:16;;;;;;;41.28;23.45;;;128.50;2252.80;;;;;;5047771;28;20143;-76
2021/12/29 07:09:41;;;;;;;40.70;22.52;;;128.60;2252.80;;;;;;5043453;28;20044;-77
2021/12/29 07:12:08;;;;;;;38.97;25.30;;;128.60;2252.80;;;;;;5050364;28;20025;-77
2021/12/29 07:14:37;;;;;;;44.47;24.13;;;128.60;2252.80;;;;;;5034195;28;20446;-77
2021/12/29 07:17:03;;;;;;;46.63;26.92;;;128.60;2252.80;;;;;;5031730;28;20433;-76
2021/12/29 07:19:29;;;;;;;45.88;28.33;;;128.60;2252.80;;;;;;5031116;28;20091;-77
2021/12/29 07:21:54;;;;;;;50.47;29.25;;;128.70;2252.80;;;;;;5030631;28;20033;-76
2021/12/29 07:24:20;;;;;;;49.00;30.38;;;128.80;2252.80;;;;;;5030789;28;20060;-76
2021/12/29 07:26:46;;;;;;;53.05;34.35;;;128.80;2252.80;;;;;;5034644;28;20057;-76
2021/12/29 07:29:12;;;;;;;52.55;33.40;;;128.80;2252.80;;;;;;5030420;28;20037;-77
2021/12/29 07:31:38;;;;;;;62.55;36.85;;;128.90;2252.80;;;;;;5030880;28;20052;-77
2021/12/29 07:34:04;;;;;;;53.25;31.95;;;128.90;2252.80;;;;;;5030374;28;20061;-77
2021/12/29 07:36:30;;;;;;;54.53;33.20;;;153.60;2252.80;;;;;;5034435;28;20025;-77
2021/12/29 07:38:57;;;;;;;54.53;31.92;;;153.60;2252.80;;;;;;5030577;28;20091;-77
2021/12/29 07:41:22;;;;;;;58.70;34.47;;;153.70;2252.80;;;;;;5034900;28;20404;-76
2021/12/29 07:43:50;;;;;;;52.35;31.52;;;153.70;2201.60;;;;;;5034831;28;20030;-76
2021/12/29 07:46:16;;;;;;;53.95;33.20;;;153.80;2252.80;;;;;;5036024;28;20071;-76
2021/12/29 07:48:43;;;;;;;55.97;34.42;;;153.80;2252.80;;;;;;5035770;28;20025;-76
2021/12/29 07:51:09;;;;;;;57.17;35.53;;;153.90;2252.80;;;;;;5039635;28;20555;-76
2021/12/29 07:53:37;;;;;;;53.83;31.40;;;154.00;2176.00;;;;;;5034472;28;20021;-77
2021/12/29 07:56:05;;;;;;;69.78;43.08;;;154.10;2252.80;;;;;;5034276;28;20028;-77
2021/12/29 07:58:30;;;;;;;73.85;43.72;;;154.10;1996.80;;;;;;5034704;28;20526;-77
2021/12/29 08:00:56;;;;;;;72.35;45.80;;;154.20;1894.40;;;;;;5036254;28;20033;-77
2021/12/29 08:03:22;;;;;;;79.32;46.60;;;154.30;2252.80;;;;;;5039966;28;20108;-77
2021/12/29 08:05:48;;;;;;;68.05;41.83;;;154.30;2252.80;;;;;;5041931;28;20041;-77
2021/12/29 08:08:14;;;;;;;55.58;35.63;;;154.30;2252.80;;;;;;5038183;28;20373;-77
2021/12/29 08:10:40;;;;;;;57.35;35.38;;;154.30;2252.80;;;;;;5041870;28;20362;-77
2021/12/29 08:13:08;;;;;;;61.65;36.78;;;154.30;2252.80;;;;;;5044214;28;20035;-77
2021/12/29 08:15:35;;;;;;;59.40;36.35;;;154.40;2252.80;;;;;;5044291;28;20396;-77
2021/12/29 08:18:02;;;;;;;67.60;40.47;;;154.40;2252.80;;;;;;5042407;28;20025;-77
2021/12/29 08:20:32;;;;;;;61.05;38.53;;;154.50;2252.80;;;;;;5045545;28;20034;-77
2021/12/29 08:22:58;;;;;;;59.90;36.80;;;154.40;2252.80;;;;;;5041957;28;20029;-77
2021/12/29 08:25:25;;;;;;;52.10;34.83;;;154.40;2252.80;;;;;;5044327;28;20021;-77
2021/12/29 08:27:51;;;;;;;58.65;35.53;;;154.50;2252.80;;;;;;5037887;28;20032;-77
2021/12/29 08:30:17;;;;;;;53.00;31.33;;;154.50;2252.80;;;;;;5046417;28;20025;-77
2021/12/29 08:32:43;;;;;;;56.75;34.28;;;154.50;2252.80;;;;;;5054797;28;20100;-77
2021/12/29 08:35:10;;;;;;;57.78;35.33;;;154.50;2252.80;;;;;;5053174;28;20174;-77
2021/12/29 08:37:36;;;;;;;51.38;34.75;;;154.50;2252.80;;;;;;5052039;28;20546;-78
2021/12/29 08:40:04;;;;;;;50.17;30.48;;;154.50;2252.80;;;;;;5037350;28;20068;-77
2021/12/29 08:42:30;;;;;;;61.22;37.90;;;154.50;2252.80;;;;;;5054839;28;20032;-78
2021/12/29 08:44:56;;;;;;;56.20;37.05;;;154.50;2252.80;;;;;;5051734;28;20112;-78
2021/12/29 08:47:21;;;;;;;58.83;37.72;;;154.50;2252.80;;;;;;5050179;28;20116;-77
2021/12/29 08:49:47;;;;;;;62.65;37.45;;;154.40;2252.80;;;;;;5038297;28;20408;-78
2021/12/29 08:52:13;;;;;;;62.38;39.33;;;154.50;2252.80;;;;;;5023222;28;20032;-78
2021/12/29 08:54:39;;;;;;;54.58;37.33;;;154.40;2252.80;;;;;;5020263;28;20032;-78
2021/12/29 08:57:06;;;;;;;64.40;38.13;;;154.50;2252.80;;;;;;5026872;28;20026;-78
2021/12/29 08:59:32;;;;;;;64.72;40.75;;;154.40;2252.80;;;;;;5021819;28;20033;-78
2021/12/29 09:01:58;;;;;;;52.67;33.63;;;154.40;2252.80;;;;;;5032567;28;20029;-78
2021/12/29 09:04:24;;;;;;;49.22;29.77;;;154.40;2252.80;;;;;;5037212;28;20044;-78
2021/12/29 09:06:50;;;;;;;44.88;28.33;;;154.30;2252.80;;;;;;5038443;28;20132;-78
2021/12/29 09:09:15;;;;;;;41.22;27.00;;;154.30;2252.80;;;;;;5043236;28;20038;-78
2021/12/29 09:11:41;;;;;;;46.35;28.25;;;154.30;2252.80;;;;;;5040571;28;20068;-79
2021/12/29 09:14:07;;;;;;;42.13;28.17;;;154.30;2252.80;;;;;;5038831;28;20087;-80
2021/12/29 09:16:33;;;;;;;41.13;26.10;;;154.30;2252.80;;;;;;5037294;28;20056;-79
2021/12/29 09:18:59;;;;;;;36.85;27.23;;;154.30;2252.80;;;;;;5046420;28;20021;-79
2021/12/29 09:21:26;;;;;;;52.03;31.85;;;154.30;2252.80;;;;;;5040676;28;20029;-80
2021/12/29 09:23:53;;;;;;;49.25;30.33;;;154.30;2252.80;;;;;;5038903;28;20025;-80
2021/12/29 09:26:19;;;;;;;45.95;27.55;;;154.30;2252.80;;;;;;5036960;28;20025;-80
2021/12/29 09:28:48;;;;;;;45.00;27.50;;;154.20;2252.80;;;;;;5027552;28;20030;-80
2021/12/29 09:31:14;;;;;;;48.03;29.05;;;154.20;2252.80;;;;;;5031867;28;20620;-80
2021/12/29 09:33:42;;;;;;;50.28;31.38;;;154.20;2252.80;;;;;;5031637;28;20070;-79
2021/12/29 09:36:08;;;;;;;49.65;31.85;;;154.10;2252.80;;;;;;5042806;28;20025;-77
2021/12/29 09:38:36;;;;;;;51.65;32.47;;;154.20;1996.80;;;;;;5037411;28;20048;-78
2021/12/29 09:41:08;;;;;;;56.55;32.13;;;154.30;1971.20;;;;;;5033176;28;20037;-76
2021/12/29 09:43:34;;;;;;;61.47;37.50;;;154.30;1894.40;;;;;;5044472;28;20068;-77
2021/12/29 09:46:00;;;;;;;70.63;43.03;;;154.40;2252.80;;;;;;5039434;28;20473;-77
2021/12/29 09:48:26;;;;;;;63.75;36.45;;;154.40;2252.80;;;;;;5042657;28;20086;-77
2021/12/29 09:50:52;;;;;;;48.28;30.73;;;154.40;2252.80;;;;;;5035119;28;20120;-77
2021/12/29 09:53:19;;;;;;;54.30;33.85;;;154.50;2252.80;;;;;;5044249;28;20043;-77
2021/12/29 09:55:46;;;;;;;57.72;33.53;;;154.50;2252.80;;;;;;5037154;28;20033;-77
2021/12/29 09:58:13;;;;;;;52.90;32.88;;;154.40;2252.80;;;;;;5043866;28;20029;-77
2021/12/29 10:00:56;;;;;;;60.75;37.55;;;154.50;2252.80;;;;;;5034288;28;20033;-77
2021/12/29 10:03:24;;;;;;;46.35;27.85;;;154.50;2252.80;;;;;;5020748;28;20435;-78
2021/12/29 10:05:55;;;;;;;46.75;26.67;;;179.30;2252.80;;;;;;5040463;28;20591;-78
2021/12/29 10:08:28;;;;;;;38.55;24.40;;;179.30;2252.80;;;;;;5033412;28;20647;-77
2021/12/29 10:10:58;;;;;;;37.22;22.85;;;179.30;2252.80;;;;;;5032480;28;20425;-77
2021/12/29 10:13:27;;;;;;;34.10;23.38;;;179.30;2252.80;;;;;;5033916;28;20017;-78
2021/12/29 10:16:05;;;;;;;35.40;22.45;;;179.30;2252.80;;;;;;5042052;28;20104;-77
2021/12/29 10:18:33;;;;;;;30.77;20.50;;;179.20;2252.80;;;;;;5027705;28;20056;-78
2021/12/29 10:21:29;;;;;;;27.63;18.27;;;154.50;2252.80;;;;;;5035689;28;20429;-78
2021/12/29 10:23:57;;;;;;;28.52;18.17;;;154.50;2252.80;;;;;;4981430;28;20413;-78
2021/12/29 10:26:32;;;;;;;33.05;17.95;;;154.50;2252.80;;;;;;5001569;28;20041;-78
2021/12/29 10:29:02;;;;;;;29.70;20.58;;;154.50;2252.80;;;;;;4999023;28;20485;-78
2021/12/29 10:31:32;;;;;;;35.00;22.17;;;154.50;2252.80;;;;;;4996646;28;20205;-78
2021/12/29 10:34:01;;;;;;;32.00;21.20;;;154.50;2252.80;;;;;;4983741;28;20038;-78
2021/12/29 10:36:41;;;;;;;33.92;20.33;;;179.30;2252.80;;;;;;4996024;28;20164;-77
2021/12/29 10:39:35;;;;;;;41.92;24.08;;;179.20;2252.80;;;;;;4977483;28;20584;-78
2021/12/29 10:42:18;;;;;;;35.92;21.40;;;179.40;2252.80;;;;;;4996980;28;20062;-78
2021/12/29 10:44:47;;;;;;;34.15;23.50;;;179.50;2252.80;;;;;;4995802;28;20525;-77
2021/12/29 10:47:19;;;;;;;35.85;25.38;;;179.50;2252.80;;;;;;4978859;28;20574;-77
2021/12/29 10:50:08;;;;;;;49.70;28.75;;;179.50;2252.80;;;;;;5000743;28;20176;-78
2021/12/29 10:52:38;;;;;;;53.90;35.25;;;179.40;2252.80;;;;;;4975666;28;20022;-78
2021/12/29 10:55:14;;;;;;;48.60;32.42;;;179.40;2252.80;;;;;;4997947;28;20015;-78
2021/12/29 10:57:40;;;;;;;45.67;31.98;;;179.40;2252.80;;;;;;4995077;28;20894;-78
2021/12/29 11:00:08;;;;;;;48.42;30.17;;;179.40;2252.80;;;;;;5010290;28;20040;-77
2021/12/29 11:02:35;;;;;;;45.58;28.02;;;179.40;2252.80;;;;;;5036117;28;20033;-77
2021/12/29 11:05:05;;;;;;;48.53;28.67;;;179.30;2252.80;;;;;;5039880;28;20533;-77
2021/12/29 11:07:32;;;;;;;56.72;38.50;;;179.40;2252.80;;;;;;5036769;28;20033;-76
2021/12/29 11:10:14;;;;;;;72.72;44.38;;;179.30;2252.80;;;;;;5041512;28;20016;-77
2021/12/29 11:12:53;;;;;;;69.35;42.72;;;179.20;2252.80;;;;;;5038267;28;20064;-77
2021/12/29 11:15:28;;;;;;;56.92;34.92;;;154.40;2252.80;;;;;;5033193;28;20079;-77
2021/12/29 11:17:56;;;;;;;55.10;31.45;;;154.40;2252.80;;;;;;5036419;28;20072;-77
2021/12/29 11:20:24;;;;;;;45.95;28.92;;;154.40;1868.80;;;;;;5043610;28;20108;-77
2021/12/29 11:22:51;;;;;;;47.63;29.40;;;154.40;2252.80;;;;;;5035238;28;20104;-78
2021/12/29 11:25:31;;;;;;;53.13;31.80;;;179.30;2252.80;;;;;;5039705;28;20033;-78
2021/12/29 11:27:57;;;;;;;51.65;31.35;;;179.50;2252.80;;;;;;5034881;28;20021;-78
2021/12/29 11:30:23;;;;;;;54.03;32.85;;;179.60;2252.80;;;;;;5040511;28;20036;-78
2021/12/29 11:32:50;;;;;;;61.30;37.67;;;179.70;2252.80;;;;;;5042273;28;20025;-77
2021/12/29 11:35:23;;;;;;;61.95;35.72;;;179.70;2252.80;;;;;;5040753;28;20485;-78
2021/12/29 11:37:51;;;;;;;67.75;39.15;;;179.80;2252.80;;;;;;5041667;28;20087;-77
2021/12/29 11:40:27;;;;;;;60.10;38.75;;;179.70;2252.80;;;;;;5037594;28;20078;-78
2021/12/29 11:42:54;;;;;;;66.88;38.92;;;179.60;2252.80;;;;;;5036381;28;20488;-77
2021/12/29 11:45:20;;;;;;;65.63;37.60;;;179.70;2252.80;;;;;;5038128;28;20116;-78
2021/12/29 11:47:47;;;;;;;63.80;41.67;;;179.70;2252.80;;;;;;5042004;28;20654;-78
2021/12/29 11:50:19;;;;;;;79.70;43.85;;;179.60;2252.80;;;;;;5036143;28;20017;-78
2021/12/29 11:53:20;;;;;;;79.75;48.20;;;179.50;2252.80;;;;;;5041982;28;20025;-78
2021/12/29 11:55:50;;;;;;;72.75;43.50;;;179.70;2252.80;;;;;;5040238;28;20456;-77
2021/12/29 11:58:18;;;;;;;77.03;47.40;;;179.80;2252.80;;;;;;5041463;28;20048;-77
2021/12/29 12:00:59;;;;;;;68.68;41.33;;;180.00;2252.80;;;;;;5041069;28;20025;-77
2021/12/29 12:03:25;;;;;;;73.22;42.13;;;204.80;2252.80;;;;;;5041483;28;20113;-78
2021/12/29 12:05:50;;;;;;;72.03;37.20;;;204.90;2252.80;;;;;;5037489;28;20124;-78
2021/12/29 12:08:22;;;;;;;62.15;38.28;;;205.00;2252.80;;;;;;5039411;28;20546;-78